createdAt,value
2019-05-06T00:00:25.107Z,100825.38
2019-05-06T00:02:54.503Z,100819.58
2019-05-06T00:05:25.332Z,100824.08
2019-05-06T00:07:54.720Z,100818.57
2019-05-06T00:10:26.303Z,100816.42
2019-05-06T00:12:55.174Z,100821.72
2019-05-06T00:15:23.883Z,100815.88
2019-05-06T00:17:53.918Z,100818.44
2019-05-06T00:20:24.380Z,100815.61
2019-05-06T00:22:55.492Z,100815.14
2019-05-06T00:25:37.696Z,100822.47
2019-05-06T00:28:30.162Z,100824.00
2019-05-06T00:31:10.370Z,100826.31
2019-05-06T00:33:30.332Z,100824.48
2019-05-06T00:36:00.579Z,100821.34
2019-05-06T00:38:29.357Z,100820.01
2019-05-06T00:41:01.232Z,100832.30
2019-05-06T00:43:29.855Z,100829.14
2019-05-06T00:45:58.462Z,100831.32
2019-05-06T00:48:27.075Z,100833.80
2019-05-06T00:50:55.733Z,100831.98
2019-05-06T00:53:26.106Z,100834.30
2019-05-06T00:55:54.723Z,100835.97
2019-05-06T00:58:23.950Z,100840.27
2019-05-06T01:00:53.807Z,100839.11
2019-05-06T01:03:23.915Z,100833.59
2019-05-06T01:05:54.209Z,100836.08
2019-05-06T01:08:23.965Z,100827.61
2019-05-06T01:10:54.431Z,100830.08
2019-05-06T01:13:47.498Z,100834.49
2019-05-06T01:16:17.478Z,100828.49
2019-05-06T01:18:46.086Z,100833.52
2019-05-06T01:21:14.799Z,100830.19
2019-05-06T01:23:44.516Z,100830.17
2019-05-06T01:26:15.089Z,100832.86
2019-05-06T01:28:43.970Z,100828.50
2019-05-06T01:31:14.096Z,100827.05
2019-05-06T01:33:45.031Z,100834.21
2019-05-06T01:36:14.204Z,100836.67
2019-05-06T01:38:53.670Z,100834.65
2019-05-06T01:41:44.724Z,100848.09
2019-05-06T01:44:13.712Z,100845.78
2019-05-06T01:46:44.609Z,100852.00
2019-05-06T01:49:13.824Z,100852.52
2019-05-06T01:51:43.835Z,100861.36
2019-05-06T01:54:14.175Z,100861.83
2019-05-06T01:56:44.435Z,100857.35
2019-05-06T01:59:14.066Z,100859.48
2019-05-06T02:01:54.870Z,100865.20
2019-05-06T02:04:13.956Z,100858.85
2019-05-06T02:06:43.816Z,100859.70
2019-05-06T02:09:17.239Z,100854.39
2019-05-06T02:11:48.012Z,100857.47
2019-05-06T02:14:16.671Z,100856.75
2019-05-06T02:16:45.303Z,100855.55
2019-05-06T02:19:14.822Z,100857.70
2019-05-06T02:22:01.229Z,100854.45
2019-05-06T02:24:35.587Z,100859.63
2019-05-06T02:27:04.618Z,100856.32
2019-05-06T02:29:36.022Z,100858.36
2019-05-06T02:32:31.618Z,100862.51
2019-05-06T02:35:26.424Z,100865.08
2019-05-06T02:37:55.455Z,100863.53
2019-05-06T02:40:26.157Z,100865.80
2019-05-06T02:42:55.386Z,100871.27
2019-05-06T02:45:24.467Z,100866.16
2019-05-06T02:48:13.741Z,100866.83
2019-05-06T02:51:03.992Z,100862.50
2019-05-06T02:53:33.508Z,100868.09
2019-05-06T02:56:04.106Z,100863.98
2019-05-06T02:58:33.228Z,100870.33
2019-05-06T03:01:03.637Z,100865.95
2019-05-06T03:03:33.746Z,100863.27
2019-05-06T03:06:03.832Z,100860.91
2019-05-06T03:08:33.218Z,100872.62
2019-05-06T03:11:03.967Z,100868.73
2019-05-06T03:13:33.931Z,100873.36
2019-05-06T03:16:05.671Z,100872.95
2019-05-06T03:18:32.977Z,100866.92
2019-05-06T03:21:13.839Z,100869.58
2019-05-06T03:23:45.919Z,100873.23
2019-05-06T03:26:14.605Z,100868.64
2019-05-06T03:28:44.196Z,100868.13
2019-05-06T03:31:16.505Z,100865.84
2019-05-06T03:33:58.401Z,100872.33
2019-05-06T03:36:23.909Z,100864.82
2019-05-06T03:38:44.317Z,100865.11
2019-05-06T03:41:13.888Z,100871.77
2019-05-06T03:43:43.627Z,100873.73
2019-05-06T03:46:23.184Z,100871.41
2019-05-06T03:48:53.307Z,100869.69
2019-05-06T03:51:23.295Z,100873.45
2019-05-06T03:53:54.005Z,100870.80
2019-05-06T03:56:23.975Z,100873.98
2019-05-06T03:58:53.898Z,100875.22
2019-05-06T04:01:23.959Z,100888.14
2019-05-06T04:03:56.932Z,100885.23
2019-05-06T04:06:24.134Z,100890.97
2019-05-06T04:08:53.861Z,100889.06
2019-05-06T04:11:24.306Z,100889.45
2019-05-06T04:13:53.567Z,100887.45
2019-05-06T04:16:46.895Z,100891.20
2019-05-06T04:19:23.495Z,100893.64
2019-05-06T04:22:03.818Z,100892.04
2019-05-06T04:24:53.704Z,100893.53
2019-05-06T04:27:48.701Z,100895.53
2019-05-06T04:30:18.070Z,100895.53
2019-05-06T04:32:46.837Z,100898.27
2019-05-06T04:35:15.549Z,100894.66
2019-05-06T04:37:44.456Z,100906.42
2019-05-06T04:40:13.349Z,100906.27
2019-05-06T04:42:44.428Z,100911.92
2019-05-06T04:45:13.546Z,100913.14
2019-05-06T04:47:43.512Z,100916.73
2019-05-06T04:50:13.111Z,100913.39
2019-05-06T04:52:43.170Z,100915.86
2019-05-06T04:55:14.341Z,100924.31
2019-05-06T04:57:43.986Z,100927.65
2019-05-06T05:00:13.409Z,100925.59
2019-05-06T05:02:43.079Z,100926.92
2019-05-06T05:05:13.882Z,100927.50
2019-05-06T05:07:42.953Z,100935.13
2019-05-06T05:10:17.940Z,100942.86
2019-05-06T05:12:57.461Z,100943.92
2019-05-06T05:15:43.700Z,100943.66
2019-05-06T05:18:32.023Z,100946.51
2019-05-06T05:21:02.405Z,100944.59
2019-05-06T05:23:31.893Z,100942.95
2019-05-06T05:26:02.955Z,100949.30
2019-05-06T05:28:32.048Z,100948.77
2019-05-06T05:31:02.925Z,100950.87
2019-05-06T05:33:32.718Z,100953.59
2019-05-06T05:36:02.208Z,100955.36
2019-05-06T05:38:32.027Z,100958.22
2019-05-06T05:41:02.972Z,100961.34
2019-05-06T05:43:54.254Z,100965.10
2019-05-06T05:46:22.910Z,100966.85
2019-05-06T05:49:21.941Z,100968.70
2019-05-06T05:51:51.985Z,100966.00
2019-05-06T05:54:22.996Z,100973.38
2019-05-06T05:56:52.924Z,100971.50
2019-05-06T05:59:23.130Z,100971.23
2019-05-06T06:01:53.039Z,100975.95
2019-05-06T06:04:22.580Z,100969.14
2019-05-06T06:06:51.961Z,100974.97
2019-05-06T06:09:22.547Z,100973.36
2019-05-06T06:11:53.483Z,100977.34
2019-05-06T06:14:55.738Z,100973.77
2019-05-06T06:17:45.987Z,100973.23
2019-05-06T06:20:33.317Z,100978.09
2019-05-06T06:23:07.614Z,100975.65
2019-05-06T06:25:36.761Z,100969.75
2019-05-06T06:28:05.471Z,100978.12
2019-05-06T06:30:42.419Z,100978.33
2019-05-06T06:33:12.859Z,100979.70
2019-05-06T06:35:51.975Z,100975.35
2019-05-06T06:38:25.596Z,100973.18
2019-05-06T06:40:55.729Z,100976.19
2019-05-06T06:43:26.288Z,100979.53
2019-05-06T06:45:55.059Z,100972.86
2019-05-06T06:48:23.669Z,100976.52
2019-05-06T06:50:52.394Z,100976.02
2019-05-06T06:53:21.870Z,100976.19
2019-05-06T06:55:52.381Z,100978.36
2019-05-06T06:58:46.382Z,100983.33
2019-05-06T07:01:42.199Z,100979.17
2019-05-06T07:04:18.766Z,100980.15
2019-05-06T07:06:49.816Z,100979.69
2019-05-06T07:09:18.446Z,100987.48
2019-05-06T07:11:47.045Z,100986.48
2019-05-06T07:14:15.788Z,100984.95
2019-05-06T07:16:44.390Z,100983.17
2019-05-06T07:19:15.024Z,100984.66
2019-05-06T07:21:53.475Z,100984.17
2019-05-06T07:24:29.631Z,100988.01
2019-05-06T07:27:07.389Z,100985.32
2019-05-06T07:29:36.021Z,100982.80
2019-05-06T07:32:04.756Z,100983.27
2019-05-06T07:34:33.367Z,100986.50
2019-05-06T07:37:03.479Z,100982.37
2019-05-06T07:39:33.356Z,100983.69
2019-05-06T07:42:03.957Z,100981.98
2019-05-06T07:44:52.962Z,100982.57
2019-05-06T07:47:43.248Z,100981.83
2019-05-06T07:50:13.022Z,100979.11
2019-05-06T07:52:44.314Z,100980.09
2019-05-06T07:55:14.044Z,100983.39
2019-05-06T07:57:42.683Z,100975.11
2019-05-06T08:00:12.523Z,100977.30
2019-05-06T08:02:42.589Z,100975.31
2019-05-06T08:05:12.749Z,100984.16
2019-05-06T08:07:42.252Z,100987.13
2019-05-06T08:10:13.434Z,100979.69
2019-05-06T08:12:42.841Z,100984.85
2019-05-06T08:15:12.713Z,100982.13
2019-05-06T08:17:42.553Z,100987.18
2019-05-06T08:20:12.883Z,100990.85
2019-05-06T08:23:02.146Z,100993.25
2019-05-06T08:26:09.183Z,100987.18
2019-05-06T08:28:37.513Z,100997.51
2019-05-06T08:30:56.703Z,100988.22
2019-05-06T08:33:27.638Z,100983.78
2019-05-06T08:36:10.560Z,100985.16
2019-05-06T08:38:26.158Z,100988.02
2019-05-06T08:40:54.951Z,100987.88
2019-05-06T08:43:23.628Z,100986.58
2019-05-06T08:45:52.877Z,100976.10
2019-05-06T08:48:22.150Z,100980.03
2019-05-06T08:51:13.066Z,100978.11
2019-05-06T08:54:03.050Z,100979.11
2019-05-06T08:56:39.780Z,100979.30
2019-05-06T08:59:08.474Z,100976.28
2019-05-06T09:01:45.161Z,100972.93
2019-05-06T09:04:16.377Z,100967.80
2019-05-06T09:06:44.218Z,100961.72
2019-05-06T09:09:13.203Z,100967.08
2019-05-06T09:11:43.132Z,100970.80
2019-05-06T09:14:13.795Z,100967.80
2019-05-06T09:16:43.795Z,100967.67
2019-05-06T09:19:13.165Z,100967.66
2019-05-06T09:21:45.844Z,100967.77
2019-05-06T09:24:12.990Z,100962.31
2019-05-06T09:26:48.580Z,100967.66
2019-05-06T09:29:54.420Z,100963.45
2019-05-06T09:32:35.968Z,100964.64
2019-05-06T09:35:05.270Z,100956.11
2019-05-06T09:37:33.919Z,100966.64
2019-05-06T09:40:03.030Z,100960.05
2019-05-06T09:42:32.200Z,100968.13
2019-05-06T09:45:02.236Z,100969.66
2019-05-06T09:47:53.191Z,100971.68
2019-05-06T09:50:36.564Z,100981.30
2019-05-06T09:53:05.783Z,100980.19
2019-05-06T09:55:43.139Z,100974.77
2019-05-06T09:58:12.328Z,100978.08
2019-05-06T10:00:43.534Z,100971.65
2019-05-06T10:03:12.281Z,100968.77
2019-05-06T10:05:42.535Z,100966.64
2019-05-06T10:08:12.443Z,100959.70
2019-05-06T10:10:53.746Z,100956.81
2019-05-06T10:13:12.891Z,100955.89
2019-05-06T10:15:42.859Z,100961.14
2019-05-06T10:18:13.274Z,100946.09
2019-05-06T10:20:43.919Z,100948.90
2019-05-06T10:23:13.075Z,100943.52
2019-05-06T10:25:43.602Z,100951.92
2019-05-06T10:28:19.613Z,100942.94
2019-05-06T10:30:48.299Z,100946.03
2019-05-06T10:33:19.265Z,100950.19
2019-05-06T10:35:48.008Z,100949.09
2019-05-06T10:38:45.026Z,100953.61
2019-05-06T10:41:18.426Z,100947.56
2019-05-06T10:44:06.963Z,100953.06
2019-05-06T10:46:35.690Z,100951.67
2019-05-06T10:49:04.313Z,100940.54
2019-05-06T10:51:52.985Z,100940.61
2019-05-06T10:54:22.873Z,100933.52
2019-05-06T10:57:16.488Z,100926.42
2019-05-06T10:59:45.184Z,100930.67
2019-05-06T11:02:25.038Z,100928.48
2019-05-06T11:04:53.686Z,100928.98
2019-05-06T11:07:31.464Z,100925.20
2019-05-06T11:09:53.256Z,100929.39
2019-05-06T11:12:22.185Z,100929.19
2019-05-06T11:14:55.294Z,100923.10
2019-05-06T11:17:23.366Z,100923.56
2019-05-06T11:19:53.336Z,100925.83
2019-05-06T11:22:24.640Z,100922.31
2019-05-06T11:24:52.432Z,100924.55
2019-05-06T11:27:28.726Z,100924.45
2019-05-06T11:29:53.182Z,100923.10
2019-05-06T11:32:55.886Z,100920.50
2019-05-06T11:35:33.245Z,100923.27
2019-05-06T11:38:13.446Z,100913.41
2019-05-06T11:40:42.216Z,100915.32
2019-05-06T11:43:11.973Z,100911.41
2019-05-06T11:45:42.600Z,100916.07
2019-05-06T11:48:14.366Z,100909.41
2019-05-06T11:50:43.113Z,100905.59
2019-05-06T11:53:12.521Z,100904.14
2019-05-06T11:55:41.204Z,100900.35
2019-05-06T11:58:28.867Z,100898.88
2019-05-06T12:00:59.583Z,100897.53
2019-05-06T12:03:28.199Z,100895.14
2019-05-06T12:05:56.828Z,100901.30
2019-05-06T12:08:25.522Z,100896.29
2019-05-06T12:10:54.145Z,100888.14
2019-05-06T12:13:23.123Z,100893.05
2019-05-06T12:15:52.505Z,100890.66
2019-05-06T12:18:23.081Z,100894.44
2019-05-06T12:20:52.756Z,100889.10
2019-05-06T12:23:22.392Z,100887.63
2019-05-06T12:25:52.952Z,100880.97
2019-05-06T12:28:21.598Z,100869.73
2019-05-06T12:30:52.395Z,100880.80
2019-05-06T12:33:39.635Z,100875.55
2019-05-06T12:36:22.632Z,100870.94
2019-05-06T12:39:09.648Z,100873.66
2019-05-06T12:41:48.865Z,100880.03
2019-05-06T12:44:17.505Z,100881.23
2019-05-06T12:47:05.487Z,100882.43
2019-05-06T12:49:34.189Z,100884.97
2019-05-06T12:52:02.892Z,100875.98
2019-05-06T12:54:33.512Z,100875.14
2019-05-06T12:57:03.275Z,100890.48
2019-05-06T12:59:32.176Z,100886.92
2019-05-06T13:02:02.659Z,100874.33
2019-05-06T13:04:50.374Z,100887.38
2019-05-06T13:07:02.993Z,100886.25
2019-05-06T13:09:33.183Z,100879.86
2019-05-06T13:12:03.949Z,100878.78
2019-05-06T13:14:33.082Z,100875.36
2019-05-06T13:17:02.650Z,100875.96
2019-05-06T13:19:32.258Z,100877.33
2019-05-06T13:22:03.580Z,100872.06
2019-05-06T13:24:32.713Z,100864.93
2019-05-06T13:27:02.518Z,100871.02
2019-05-06T13:29:35.418Z,100866.89
2019-05-06T13:32:03.159Z,100861.51
2019-05-06T13:34:33.386Z,100864.75
2019-05-06T13:37:02.216Z,100851.83
2019-05-06T13:39:32.811Z,100866.53
2019-05-06T13:42:01.152Z,100865.36
2019-05-06T13:44:31.805Z,100870.26
2019-05-06T13:47:02.778Z,100866.51
2019-05-06T13:49:54.363Z,100867.34
2019-05-06T13:52:25.809Z,100859.02
2019-05-06T13:54:54.477Z,100870.08
2019-05-06T13:57:23.123Z,100868.18
2019-05-06T13:59:53.246Z,100860.25
2019-05-06T14:02:27.883Z,100859.99
2019-05-06T14:04:56.746Z,100860.23
2019-05-06T14:07:25.475Z,100860.23
2019-05-06T14:09:54.160Z,100865.09
2019-05-06T14:12:22.777Z,100856.27
2019-05-06T14:14:52.626Z,100861.26
2019-05-06T14:17:22.362Z,100862.97
2019-05-06T14:19:53.157Z,100866.45
2019-05-06T14:22:23.221Z,100869.27
2019-05-06T14:25:01.038Z,100867.70
2019-05-06T14:27:29.710Z,100867.62
2019-05-06T14:30:04.640Z,100867.66
2019-05-06T14:32:33.507Z,100867.80
2019-05-06T14:35:02.119Z,100867.34
2019-05-06T14:37:32.823Z,100863.27
2019-05-06T14:40:02.615Z,100864.01
2019-05-06T14:42:32.939Z,100864.34
2019-05-06T14:45:01.715Z,100865.44
2019-05-06T14:47:32.820Z,100860.02
2019-05-06T14:50:03.875Z,100868.39
2019-05-06T14:52:33.335Z,100864.97
2019-05-06T14:55:19.263Z,100866.70
2019-05-06T14:57:48.004Z,100864.25
2019-05-06T15:00:18.795Z,100864.64
2019-05-06T15:02:47.411Z,100863.91
2019-05-06T15:05:16.494Z,100865.95
2019-05-06T15:07:45.167Z,100869.22
2019-05-06T15:10:22.700Z,100871.30
2019-05-06T15:12:44.421Z,100871.31
2019-05-06T15:15:13.117Z,100870.41
2019-05-06T15:17:43.015Z,100870.42
2019-05-06T15:20:12.218Z,100866.48
2019-05-06T15:22:42.043Z,100869.23
2019-05-06T15:25:12.933Z,100866.58
2019-05-06T15:27:42.590Z,100867.97
2019-05-06T15:30:16.355Z,100875.89
2019-05-06T15:32:45.057Z,100862.09
2019-05-06T15:35:22.870Z,100877.05
2019-05-06T15:37:54.686Z,100867.99
2019-05-06T15:40:32.061Z,100869.94
2019-05-06T15:42:53.858Z,100879.53
2019-05-06T15:45:22.617Z,100879.58
2019-05-06T15:47:52.319Z,100875.16
2019-05-06T15:50:23.030Z,100881.06
2019-05-06T15:52:53.671Z,100884.36
2019-05-06T15:55:22.601Z,100876.51
2019-05-06T15:57:52.607Z,100880.63
2019-05-06T16:00:22.723Z,100883.94
2019-05-06T16:02:52.987Z,100876.73
2019-05-06T16:05:26.127Z,100877.23
2019-05-06T16:07:53.036Z,100875.97
2019-05-06T16:10:22.643Z,100875.07
2019-05-06T16:12:53.368Z,100876.69
2019-05-06T16:15:24.507Z,100876.28
2019-05-06T16:17:52.956Z,100869.63
2019-05-06T16:20:22.303Z,100883.95
2019-05-06T16:22:54.999Z,100882.27
2019-05-06T16:25:23.634Z,100882.91
2019-05-06T16:27:54.851Z,100875.83
2019-05-06T16:30:24.444Z,100875.73
2019-05-06T16:32:53.388Z,100870.48
2019-05-06T16:35:22.832Z,100873.81
2019-05-06T16:37:51.684Z,100872.38
2019-05-06T16:40:22.965Z,100866.24
2019-05-06T16:42:54.218Z,100872.34
2019-05-06T16:45:23.416Z,100864.37
2019-05-06T16:47:52.519Z,100863.70
2019-05-06T16:50:22.585Z,100867.77
2019-05-06T16:52:52.701Z,100855.02
2019-05-06T16:55:27.382Z,100860.10
2019-05-06T16:58:02.495Z,100868.96
2019-05-06T17:00:32.891Z,100858.97
2019-05-06T17:03:14.636Z,100863.92
2019-05-06T17:06:01.542Z,100861.05
2019-05-06T17:08:30.178Z,100863.53
2019-05-06T17:10:58.807Z,100862.58
2019-05-06T17:13:27.554Z,100860.27
2019-05-06T17:15:56.481Z,100858.48
2019-05-06T17:18:25.089Z,100857.69
2019-05-06T17:20:53.730Z,100863.13
2019-05-06T17:23:22.499Z,100865.06
2019-05-06T17:25:52.121Z,100868.38
2019-05-06T17:28:35.727Z,100865.09
2019-05-06T17:31:16.682Z,100872.09
2019-05-06T17:33:45.490Z,100872.67
2019-05-06T17:36:15.785Z,100871.75
2019-05-06T17:38:46.878Z,100876.67
2019-05-06T17:41:15.569Z,100868.70
2019-05-06T17:43:44.379Z,100871.45
2019-05-06T17:46:14.133Z,100873.25
2019-05-06T17:49:02.377Z,100871.69
2019-05-06T17:51:39.766Z,100866.63
2019-05-06T17:54:08.415Z,100872.19
2019-05-06T17:56:37.051Z,100871.69
2019-05-06T17:59:05.823Z,100870.41
2019-05-06T18:01:42.043Z,100874.43
2019-05-06T18:04:12.550Z,100874.63
2019-05-06T18:06:42.452Z,100879.59
2019-05-06T18:09:12.717Z,100874.70
2019-05-06T18:11:42.388Z,100872.72
2019-05-06T18:14:12.367Z,100874.19
2019-05-06T18:16:42.725Z,100878.72
2019-05-06T18:19:12.637Z,100875.56
2019-05-06T18:21:41.745Z,100871.08
2019-05-06T18:24:12.667Z,100868.45
2019-05-06T18:26:42.078Z,100871.61
2019-05-06T18:29:12.564Z,100872.12
2019-05-06T18:31:42.656Z,100872.73
2019-05-06T18:34:12.880Z,100875.80
2019-05-06T18:36:42.924Z,100869.36
2019-05-06T18:39:12.592Z,100868.33
2019-05-06T18:41:42.107Z,100873.05
2019-05-06T18:44:11.946Z,100876.63
2019-05-06T18:46:44.113Z,100885.34
2019-05-06T18:49:18.659Z,100881.33
2019-05-06T18:51:56.416Z,100886.53
2019-05-06T18:54:29.727Z,100886.42
2019-05-06T18:57:04.951Z,100888.11
2019-05-06T18:59:37.141Z,100883.85
2019-05-06T19:02:09.425Z,100887.11
2019-05-06T19:05:09.397Z,100894.37
2019-05-06T19:07:40.372Z,100890.72
2019-05-06T19:10:17.433Z,100897.98
2019-05-06T19:12:49.652Z,100894.73
2019-05-06T19:15:22.061Z,100901.29
2019-05-06T19:17:55.082Z,100904.80
2019-05-06T19:20:54.625Z,100899.84
2019-05-06T19:23:23.586Z,100904.13
2019-05-06T19:25:53.964Z,100908.72
2019-05-06T19:28:26.251Z,100906.58
2019-05-06T19:30:56.641Z,100898.24
2019-05-06T19:33:27.552Z,100909.46
2019-05-06T19:35:58.669Z,100907.98
2019-05-06T19:38:33.574Z,100917.17
2019-05-06T19:41:02.457Z,100913.88
2019-05-06T19:43:32.945Z,100921.15
2019-05-06T19:46:38.508Z,100916.83
2019-05-06T19:49:10.981Z,100913.55
2019-05-06T19:51:45.459Z,100909.16
2019-05-06T19:54:22.578Z,100912.82
2019-05-06T19:56:54.026Z,100907.42
2019-05-06T19:59:25.883Z,100911.64
2019-05-06T20:01:58.574Z,100907.42
2019-05-06T20:04:33.383Z,100907.45
2019-05-06T20:07:22.836Z,100908.31
2019-05-06T20:10:13.560Z,100912.11
2019-05-06T20:12:58.440Z,100903.47
2019-05-06T20:15:36.483Z,100910.55
2019-05-06T20:18:06.477Z,100916.62
2019-05-06T20:20:39.414Z,100913.34
2019-05-06T20:23:12.518Z,100912.94
2019-05-06T20:25:44.963Z,100916.98
2019-05-06T20:28:22.848Z,100909.84
2019-05-06T20:30:53.299Z,100909.35
2019-05-06T20:33:25.917Z,100915.70
2019-05-06T20:35:54.811Z,100911.73
2019-05-06T20:38:24.454Z,100914.16
2019-05-06T20:40:54.406Z,100912.35
2019-05-06T20:43:24.911Z,100911.71
2019-05-06T20:45:55.505Z,100913.72
2019-05-06T20:48:26.474Z,100911.31
2019-05-06T20:51:04.929Z,100910.81
2019-05-06T20:53:37.071Z,100907.19
2019-05-06T20:56:28.841Z,100909.20
2019-05-06T20:58:59.027Z,100913.00
2019-05-06T21:01:27.832Z,100916.64
2019-05-06T21:03:57.719Z,100918.38
2019-05-06T21:06:29.482Z,100920.14
2019-05-06T21:09:02.144Z,100919.84
2019-05-06T21:11:32.667Z,100918.73
2019-05-06T21:14:03.862Z,100919.22
2019-05-06T21:16:34.659Z,100915.56
2019-05-06T21:19:03.579Z,100917.25
2019-05-06T21:21:33.966Z,100915.88
2019-05-06T21:24:03.937Z,100913.89
2019-05-06T21:26:34.500Z,100905.70
2019-05-06T21:29:04.341Z,100915.17
2019-05-06T21:31:35.609Z,100917.73
2019-05-06T21:34:05.694Z,100918.86
2019-05-06T21:36:38.631Z,100910.23
2019-05-06T21:39:08.802Z,100916.72
2019-05-06T21:41:39.069Z,100914.91
2019-05-06T21:44:09.232Z,100920.08
2019-05-06T21:46:38.834Z,100910.43
2019-05-06T21:49:12.338Z,100915.95
2019-05-06T21:51:52.207Z,100911.75
2019-05-06T21:54:23.301Z,100915.89
2019-05-06T21:56:54.189Z,100914.05
2019-05-06T21:59:23.136Z,100909.70
2019-05-06T22:01:56.231Z,100900.55
2019-05-06T22:04:26.719Z,100904.86
2019-05-06T22:06:59.548Z,100905.31
2019-05-06T22:09:32.297Z,100906.54
2019-05-06T22:12:04.291Z,100903.20
2019-05-06T22:14:37.228Z,100904.71
2019-05-06T22:17:08.703Z,100900.89
2019-05-06T22:19:52.411Z,100904.55
2019-05-06T22:22:44.311Z,100901.39
2019-05-06T22:25:16.472Z,100896.09
2019-05-06T22:27:46.791Z,100901.46
2019-05-06T22:30:18.131Z,100891.04
2019-05-06T22:32:49.753Z,100890.73
2019-05-06T22:35:18.848Z,100901.64
2019-05-06T22:37:47.675Z,100897.19
2019-05-06T22:40:26.453Z,100895.50
2019-05-06T22:42:57.248Z,100888.81
2019-05-06T22:45:32.895Z,100898.06
2019-05-06T22:48:11.997Z,100894.39
2019-05-06T22:50:44.091Z,100890.05
2019-05-06T22:53:15.717Z,100892.03
2019-05-06T22:55:46.195Z,100899.16
2019-05-06T22:58:16.492Z,100896.50
2019-05-06T23:00:53.766Z,100898.04
2019-05-06T23:03:25.849Z,100890.60
2019-05-06T23:05:56.371Z,100888.28
2019-05-06T23:08:27.950Z,100896.73
2019-05-06T23:11:01.108Z,100892.41
2019-05-06T23:13:30.167Z,100889.07
2019-05-06T23:15:58.865Z,100891.58
2019-05-06T23:18:27.553Z,100892.70
2019-05-06T23:20:56.265Z,100893.89
2019-05-06T23:23:24.882Z,100890.71
2019-05-06T23:26:13.019Z,100888.85
2019-05-06T23:28:41.585Z,100887.86
2019-05-06T23:31:11.858Z,100883.86
2019-05-06T23:33:42.762Z,100882.69
2019-05-06T23:36:12.100Z,100882.05
2019-05-06T23:39:17.144Z,100880.05
2019-05-06T23:42:22.821Z,100877.06
2019-05-06T23:45:28.142Z,100879.41
2019-05-06T23:48:33.193Z,100878.59
2019-05-06T23:51:38.069Z,100878.07
2019-05-06T23:54:42.936Z,100880.73
2019-05-06T23:57:10.321Z,100875.34
2019-05-06T23:59:38.928Z,100873.94
